sensor_id;sensor_type;location;lat;lon;timestamp;temperature;humidity
63017;DHT22;50274;45.640;11.756;2023-02-01T00:00:23;3.00;67.30
63017;DHT22;50274;45.640;11.756;2023-02-01T00:02:49;3.00;67.40
63017;DHT22;50274;45.640;11.756;2023-02-01T00:05:15;3.00;67.30
63017;DHT22;50274;45.640;11.756;2023-02-01T00:07:41;3.00;67.40
63017;DHT22;50274;45.640;11.756;2023-02-01T00:10:07;2.90;67.40
63017;DHT22;50274;45.640;11.756;2023-02-01T00:12:33;2.90;67.50
63017;DHT22;50274;45.640;11.756;2023-02-01T00:14:59;2.90;67.50
63017;DHT22;50274;45.640;11.756;2023-02-01T00:17:25;2.90;67.60
63017;DHT22;50274;45.640;11.756;2023-02-01T00:19:51;2.90;67.50
63017;DHT22;50274;45.640;11.756;2023-02-01T00:22:16;2.80;67.50
63017;DHT22;50274;45.640;11.756;2023-02-01T00:24:42;2.80;67.60
63017;DHT22;50274;45.640;11.756;2023-02-01T00:27:08;2.80;67.70
63017;DHT22;50274;45.640;11.756;2023-02-01T00:29:34;2.80;67.70
63017;DHT22;50274;45.640;11.756;2023-02-01T00:32:00;2.80;67.70
63017;DHT22;50274;45.640;11.756;2023-02-01T00:34:26;2.80;67.70
63017;DHT22;50274;45.640;11.756;2023-02-01T00:36:52;2.80;67.70
63017;DHT22;50274;45.640;11.756;2023-02-01T00:39:17;2.80;67.60
63017;DHT22;50274;45.640;11.756;2023-02-01T00:41:43;2.80;67.60
63017;DHT22;50274;45.640;11.756;2023-02-01T00:44:09;2.80;67.60
63017;DHT22;50274;45.640;11.756;2023-02-01T00:46:35;2.70;67.60
63017;DHT22;50274;45.640;11.756;2023-02-01T00:49:02;2.70;67.60
63017;DHT22;50274;45.640;11.756;2023-02-01T00:51:29;2.70;67.60
63017;DHT22;50274;45.640;11.756;2023-02-01T00:53:55;2.70;67.60
63017;DHT22;50274;45.640;11.756;2023-02-01T00:56:21;2.70;67.70
63017;DHT22;50274;45.640;11.756;2023-02-01T00:58:47;2.70;67.70
63017;DHT22;50274;45.640;11.756;2023-02-01T01:01:20;2.70;67.80
63017;DHT22;50274;45.640;11.756;2023-02-01T01:03:58;2.60;67.70
63017;DHT22;50274;45.640;11.756;2023-02-01T01:06:26;2.60;67.70
63017;DHT22;50274;45.640;11.756;2023-02-01T01:08:54;2.60;67.70
63017;DHT22;50274;45.640;11.756;2023-02-01T01:11:25;2.60;67.70
63017;DHT22;50274;45.640;11.756;2023-02-01T01:13:53;2.60;67.80
63017;DHT22;50274;45.640;11.756;2023-02-01T01:16:20;2.50;67.80
63017;DHT22;50274;45.640;11.756;2023-02-01T01:18:46;2.50;67.80
63017;DHT22;50274;45.640;11.756;2023-02-01T01:21:13;2.50;67.80
63017;DHT22;50274;45.640;11.756;2023-02-01T01:23:40;2.50;67.80
63017;DHT22;50274;45.640;11.756;2023-02-01T01:26:14;2.40;67.80
63017;DHT22;50274;45.640;11.756;2023-02-01T01:28:40;2.40;67.80
63017;DHT22;50274;45.640;11.756;2023-02-01T01:31:14;2.40;67.80
63017;DHT22;50274;45.640;11.756;2023-02-01T01:33:40;2.40;67.80
63017;DHT22;50274;45.640;11.756;2023-02-01T01:36:08;2.40;67.80
63017;DHT22;50274;45.640;11.756;2023-02-01T01:38:37;2.40;67.80
63017;DHT22;50274;45.640;11.756;2023-02-01T01:41:03;2.40;67.80
63017;DHT22;50274;45.640;11.756;2023-02-01T01:43:48;2.30;67.80
63017;DHT22;50274;45.640;11.756;2023-02-01T01:46:26;2.30;67.80
63017;DHT22;50274;45.640;11.756;2023-02-01T01:51:43;2.30;67.80
63017;DHT22;50274;45.640;11.756;2023-02-01T01:56:43;2.30;67.70
63017;DHT22;50274;45.640;11.756;2023-02-01T01:59:11;2.20;67.70
63017;DHT22;50274;45.640;11.756;2023-02-01T02:01:38;2.20;67.70
63017;DHT22;50274;45.640;11.756;2023-02-01T02:04:04;2.20;67.70
63017;DHT22;50274;45.640;11.756;2023-02-01T02:06:52;2.20;67.60
63017;DHT22;50274;45.640;11.756;2023-02-01T02:09:21;2.20;67.60
63017;DHT22;50274;45.640;11.756;2023-02-01T02:11:46;2.10;67.60
63017;DHT22;50274;45.640;11.756;2023-02-01T02:14:15;2.10;67.70
63017;DHT22;50274;45.640;11.756;2023-02-01T02:16:58;2.10;67.70
63017;DHT22;50274;45.640;11.756;2023-02-01T02:22:35;2.10;67.70
63017;DHT22;50274;45.640;11.756;2023-02-01T02:27:59;2.10;67.60
63017;DHT22;50274;45.640;11.756;2023-02-01T02:36:04;2.00;67.70
63017;DHT22;50274;45.640;11.756;2023-02-01T02:38:39;2.00;67.70
63017;DHT22;50274;45.640;11.756;2023-02-01T02:41:33;2.00;67.70
63017;DHT22;50274;45.640;11.756;2023-02-01T02:47:42;2.00;67.90
63017;DHT22;50274;45.640;11.756;2023-02-01T02:53:32;1.90;67.80
63017;DHT22;50274;45.640;11.756;2023-02-01T02:56:20;2.00;67.80
63017;DHT22;50274;45.640;11.756;2023-02-01T02:59:07;2.00;67.70
63017;DHT22;50274;45.640;11.756;2023-02-01T03:01:53;2.00;67.70
63017;DHT22;50274;45.640;11.756;2023-02-01T03:04:37;1.90;67.70
63017;DHT22;50274;45.640;11.756;2023-02-01T03:10:58;1.90;67.70
63017;DHT22;50274;45.640;11.756;2023-02-01T03:13:12;1.90;67.70
63017;DHT22;50274;45.640;11.756;2023-02-01T03:18:45;1.90;67.80
63017;DHT22;50274;45.640;11.756;2023-02-01T03:21:18;1.90;67.80
63017;DHT22;50274;45.640;11.756;2023-02-01T03:23:47;1.80;67.80
63017;DHT22;50274;45.640;11.756;2023-02-01T03:26:15;1.80;67.80
63017;DHT22;50274;45.640;11.756;2023-02-01T03:28:50;1.80;67.80
63017;DHT22;50274;45.640;11.756;2023-02-01T03:31:22;1.80;67.90
63017;DHT22;50274;45.640;11.756;2023-02-01T03:33:48;1.80;67.90
63017;DHT22;50274;45.640;11.756;2023-02-01T03:46:53;1.70;68.00
63017;DHT22;50274;45.640;11.756;2023-02-01T03:49:28;1.80;68.00
63017;DHT22;50274;45.640;11.756;2023-02-01T03:51:56;1.80;67.90
63017;DHT22;50274;45.640;11.756;2023-02-01T03:54:24;1.70;67.90
63017;DHT22;50274;45.640;11.756;2023-02-01T03:56:52;1.70;67.90
63017;DHT22;50274;45.640;11.756;2023-02-01T03:59:19;1.70;67.80
63017;DHT22;50274;45.640;11.756;2023-02-01T04:01:45;1.70;67.90
63017;DHT22;50274;45.640;11.756;2023-02-01T04:04:14;1.70;67.90
63017;DHT22;50274;45.640;11.756;2023-02-01T04:06:50;1.60;67.90
63017;DHT22;50274;45.640;11.756;2023-02-01T04:09:15;1.60;67.90
63017;DHT22;50274;45.640;11.756;2023-02-01T04:11:42;1.60;67.90
63017;DHT22;50274;45.640;11.756;2023-02-01T04:14:08;1.60;67.90
63017;DHT22;50274;45.640;11.756;2023-02-01T04:16:34;1.60;67.90
63017;DHT22;50274;45.640;11.756;2023-02-01T04:19:01;1.60;68.00
63017;DHT22;50274;45.640;11.756;2023-02-01T04:21:27;1.60;68.00
63017;DHT22;50274;45.640;11.756;2023-02-01T04:23:53;1.60;68.10
63017;DHT22;50274;45.640;11.756;2023-02-01T04:26:20;1.60;68.10
63017;DHT22;50274;45.640;11.756;2023-02-01T04:28:46;1.60;68.10
63017;DHT22;50274;45.640;11.756;2023-02-01T04:31:16;1.60;68.10
63017;DHT22;50274;45.640;11.756;2023-02-01T04:33:44;1.60;68.00
63017;DHT22;50274;45.640;11.756;2023-02-01T04:36:10;1.60;68.00
63017;DHT22;50274;45.640;11.756;2023-02-01T04:38:36;1.60;68.00
63017;DHT22;50274;45.640;11.756;2023-02-01T04:41:02;1.50;67.90
63017;DHT22;50274;45.640;11.756;2023-02-01T04:43:27;1.50;67.90
63017;DHT22;50274;45.640;11.756;2023-02-01T04:45:53;1.50;67.90
63017;DHT22;50274;45.640;11.756;2023-02-01T04:48:20;1.50;67.90
63017;DHT22;50274;45.640;11.756;2023-02-01T04:50:46;1.50;67.90
63017;DHT22;50274;45.640;11.756;2023-02-01T04:53:14;1.50;67.90
63017;DHT22;50274;45.640;11.756;2023-02-01T04:55:41;1.50;67.90
63017;DHT22;50274;45.640;11.756;2023-02-01T04:58:07;1.40;67.90
63017;DHT22;50274;45.640;11.756;2023-02-01T05:00:34;1.40;67.90
63017;DHT22;50274;45.640;11.756;2023-02-01T05:03:00;1.40;67.90
63017;DHT22;50274;45.640;11.756;2023-02-01T05:05:27;1.40;67.90
63017;DHT22;50274;45.640;11.756;2023-02-01T05:07:53;1.40;67.90
63017;DHT22;50274;45.640;11.756;2023-02-01T05:10:18;1.40;68.00
63017;DHT22;50274;45.640;11.756;2023-02-01T05:12:44;1.40;67.90
63017;DHT22;50274;45.640;11.756;2023-02-01T05:15:29;1.30;68.00
63017;DHT22;50274;45.640;11.756;2023-02-01T05:17:55;1.30;68.00
63017;DHT22;50274;45.640;11.756;2023-02-01T05:20:22;1.30;68.00
63017;DHT22;50274;45.640;11.756;2023-02-01T05:22:47;1.30;68.10
63017;DHT22;50274;45.640;11.756;2023-02-01T05:25:13;1.20;68.00
63017;DHT22;50274;45.640;11.756;2023-02-01T05:27:39;1.20;68.10
63017;DHT22;50274;45.640;11.756;2023-02-01T05:30:06;1.20;68.10
63017;DHT22;50274;45.640;11.756;2023-02-01T05:32:32;1.20;68.10
63017;DHT22;50274;45.640;11.756;2023-02-01T05:34:58;1.20;68.10
63017;DHT22;50274;45.640;11.756;2023-02-01T05:37:24;1.20;68.10
63017;DHT22;50274;45.640;11.756;2023-02-01T05:39:50;1.20;68.10
63017;DHT22;50274;45.640;11.756;2023-02-01T05:42:16;1.10;68.10
63017;DHT22;50274;45.640;11.756;2023-02-01T05:44:42;1.10;68.20
63017;DHT22;50274;45.640;11.756;2023-02-01T05:47:11;1.10;68.20
63017;DHT22;50274;45.640;11.756;2023-02-01T05:49:38;1.10;68.30
63017;DHT22;50274;45.640;11.756;2023-02-01T05:52:07;1.10;68.40
63017;DHT22;50274;45.640;11.756;2023-02-01T05:54:36;1.10;68.50
63017;DHT22;50274;45.640;11.756;2023-02-01T05:57:02;1.10;68.50
63017;DHT22;50274;45.640;11.756;2023-02-01T05:59:28;1.10;68.50
63017;DHT22;50274;45.640;11.756;2023-02-01T06:01:55;1.10;68.50
63017;DHT22;50274;45.640;11.756;2023-02-01T06:04:21;1.10;68.50
63017;DHT22;50274;45.640;11.756;2023-02-01T06:06:46;1.10;68.60
63017;DHT22;50274;45.640;11.756;2023-02-01T06:09:13;1.10;68.50
63017;DHT22;50274;45.640;11.756;2023-02-01T06:11:39;1.10;68.70
63017;DHT22;50274;45.640;11.756;2023-02-01T06:14:05;1.10;68.70
63017;DHT22;50274;45.640;11.756;2023-02-01T06:16:33;1.10;68.80
63017;DHT22;50274;45.640;11.756;2023-02-01T06:18:59;1.10;68.80
63017;DHT22;50274;45.640;11.756;2023-02-01T06:21:25;1.10;68.80
63017;DHT22;50274;45.640;11.756;2023-02-01T06:23:53;1.10;68.80
63017;DHT22;50274;45.640;11.756;2023-02-01T06:26:19;1.10;68.90
63017;DHT22;50274;45.640;11.756;2023-02-01T06:28:45;1.10;68.90
63017;DHT22;50274;45.640;11.756;2023-02-01T06:31:11;1.20;69.00
63017;DHT22;50274;45.640;11.756;2023-02-01T06:33:38;1.20;69.10
63017;DHT22;50274;45.640;11.756;2023-02-01T06:36:06;1.20;69.20
63017;DHT22;50274;45.640;11.756;2023-02-01T06:38:33;1.30;69.30
63017;DHT22;50274;45.640;11.756;2023-02-01T06:41:00;1.30;69.30
63017;DHT22;50274;45.640;11.756;2023-02-01T06:43:27;1.30;69.30
63017;DHT22;50274;45.640;11.756;2023-02-01T06:45:58;1.30;69.30
63017;DHT22;50274;45.640;11.756;2023-02-01T06:48:24;1.30;69.40
63017;DHT22;50274;45.640;11.756;2023-02-01T06:50:50;1.30;69.40
63017;DHT22;50274;45.640;11.756;2023-02-01T06:53:15;1.40;69.40
63017;DHT22;50274;45.640;11.756;2023-02-01T06:55:51;1.40;69.50
63017;DHT22;50274;45.640;11.756;2023-02-01T06:58:17;1.40;69.50
63017;DHT22;50274;45.640;11.756;2023-02-01T07:00:43;1.40;69.50
63017;DHT22;50274;45.640;11.756;2023-02-01T07:03:09;1.50;69.50
63017;DHT22;50274;45.640;11.756;2023-02-01T07:05:34;1.50;69.50
63017;DHT22;50274;45.640;11.756;2023-02-01T07:08:00;1.50;69.70
63017;DHT22;50274;45.640;11.756;2023-02-01T07:10:26;1.50;69.80
63017;DHT22;50274;45.640;11.756;2023-02-01T07:12:52;1.50;69.80
63017;DHT22;50274;45.640;11.756;2023-02-01T07:15:17;1.50;69.90
63017;DHT22;50274;45.640;11.756;2023-02-01T07:17:43;1.50;69.90
63017;DHT22;50274;45.640;11.756;2023-02-01T07:20:10;1.60;70.10
63017;DHT22;50274;45.640;11.756;2023-02-01T07:22:36;1.60;70.40
63017;DHT22;50274;45.640;11.756;2023-02-01T07:25:02;1.60;70.70
63017;DHT22;50274;45.640;11.756;2023-02-01T07:27:34;1.60;70.70
63017;DHT22;50274;45.640;11.756;2023-02-01T07:30:06;1.70;71.10
63017;DHT22;50274;45.640;11.756;2023-02-01T07:32:32;1.70;71.50
63017;DHT22;50274;45.640;11.756;2023-02-01T07:35:01;1.80;71.40
63017;DHT22;50274;45.640;11.756;2023-02-01T07:37:27;1.80;71.40
63017;DHT22;50274;45.640;11.756;2023-02-01T07:39:56;1.80;71.30
63017;DHT22;50274;45.640;11.756;2023-02-01T07:42:22;1.80;71.20
63017;DHT22;50274;45.640;11.756;2023-02-01T07:44:50;1.90;71.20
63017;DHT22;50274;45.640;11.756;2023-02-01T07:47:16;1.90;71.20
63017;DHT22;50274;45.640;11.756;2023-02-01T07:49:42;1.90;71.20
63017;DHT22;50274;45.640;11.756;2023-02-01T07:52:08;2.00;71.30
63017;DHT22;50274;45.640;11.756;2023-02-01T07:54:33;2.00;71.20
63017;DHT22;50274;45.640;11.756;2023-02-01T07:57:02;2.00;71.10
63017;DHT22;50274;45.640;11.756;2023-02-01T07:59:28;2.10;71.10
63017;DHT22;50274;45.640;11.756;2023-02-01T08:01:54;2.10;71.00
63017;DHT22;50274;45.640;11.756;2023-02-01T08:04:20;2.20;71.10
63017;DHT22;50274;45.640;11.756;2023-02-01T08:06:45;2.20;71.10
63017;DHT22;50274;45.640;11.756;2023-02-01T08:09:11;2.30;70.90
63017;DHT22;50274;45.640;11.756;2023-02-01T08:11:37;2.40;70.90
63017;DHT22;50274;45.640;11.756;2023-02-01T08:14:04;2.40;70.80
63017;DHT22;50274;45.640;11.756;2023-02-01T08:16:31;2.50;70.80
63017;DHT22;50274;45.640;11.756;2023-02-01T08:18:59;2.60;70.80
63017;DHT22;50274;45.640;11.756;2023-02-01T08:21:27;2.70;70.70
63017;DHT22;50274;45.640;11.756;2023-02-01T08:24:14;2.80;70.60
63017;DHT22;50274;45.640;11.756;2023-02-01T08:26:40;2.90;70.60
63017;DHT22;50274;45.640;11.756;2023-02-01T08:29:07;2.90;70.50
63017;DHT22;50274;45.640;11.756;2023-02-01T08:31:34;3.00;70.50
63017;DHT22;50274;45.640;11.756;2023-02-01T08:34:01;3.00;70.40
63017;DHT22;50274;45.640;11.756;2023-02-01T08:36:30;3.10;70.50
63017;DHT22;50274;45.640;11.756;2023-02-01T08:38:56;3.10;70.50
63017;DHT22;50274;45.640;11.756;2023-02-01T08:41:25;3.20;70.50
63017;DHT22;50274;45.640;11.756;2023-02-01T08:43:51;3.30;70.50
63017;DHT22;50274;45.640;11.756;2023-02-01T08:46:17;3.30;70.50
63017;DHT22;50274;45.640;11.756;2023-02-01T08:48:43;3.40;70.60
63017;DHT22;50274;45.640;11.756;2023-02-01T08:51:11;3.50;70.50
63017;DHT22;50274;45.640;11.756;2023-02-01T08:53:38;3.60;70.50
63017;DHT22;50274;45.640;11.756;2023-02-01T08:56:07;3.70;70.50
63017;DHT22;50274;45.640;11.756;2023-02-01T08:58:33;3.90;70.70
63017;DHT22;50274;45.640;11.756;2023-02-01T09:01:07;3.90;70.70
63017;DHT22;50274;45.640;11.756;2023-02-01T09:03:33;4.00;70.70
63017;DHT22;50274;45.640;11.756;2023-02-01T09:06:07;4.10;70.60
63017;DHT22;50274;45.640;11.756;2023-02-01T09:08:33;4.30;70.50
63017;DHT22;50274;45.640;11.756;2023-02-01T09:11:01;4.40;70.30
63017;DHT22;50274;45.640;11.756;2023-02-01T09:13:27;4.60;70.30
63017;DHT22;50274;45.640;11.756;2023-02-01T09:15:53;4.70;70.20
63017;DHT22;50274;45.640;11.756;2023-02-01T09:18:19;4.80;70.00
63017;DHT22;50274;45.640;11.756;2023-02-01T09:20:45;4.90;69.80
63017;DHT22;50274;45.640;11.756;2023-02-01T09:23:11;5.00;69.60
63017;DHT22;50274;45.640;11.756;2023-02-01T09:25:37;5.20;69.60
63017;DHT22;50274;45.640;11.756;2023-02-01T09:28:04;5.30;69.60
63017;DHT22;50274;45.640;11.756;2023-02-01T09:30:32;5.50;69.40
63017;DHT22;50274;45.640;11.756;2023-02-01T09:32:59;5.60;69.10
63017;DHT22;50274;45.640;11.756;2023-02-01T09:35:25;5.70;68.90
63017;DHT22;50274;45.640;11.756;2023-02-01T09:37:52;5.80;68.70
63017;DHT22;50274;45.640;11.756;2023-02-01T09:40:19;6.00;68.50
63017;DHT22;50274;45.640;11.756;2023-02-01T09:45:35;6.30;68.30
63017;DHT22;50274;45.640;11.756;2023-02-01T09:48:17;6.50;68.10
63017;DHT22;50274;45.640;11.756;2023-02-01T09:50:53;6.70;67.90
63017;DHT22;50274;45.640;11.756;2023-02-01T09:53:29;6.90;67.50
63017;DHT22;50274;45.640;11.756;2023-02-01T09:56:10;7.00;67.30
63017;DHT22;50274;45.640;11.756;2023-02-01T10:01:47;7.30;66.50
63017;DHT22;50274;45.640;11.756;2023-02-01T10:04:14;7.50;66.10
63017;DHT22;50274;45.640;11.756;2023-02-01T10:15:02;8.00;65.40
63017;DHT22;50274;45.640;11.756;2023-02-01T10:17:53;8.20;65.20
63017;DHT22;50274;45.640;11.756;2023-02-01T10:20:31;8.40;64.70
63017;DHT22;50274;45.640;11.756;2023-02-01T10:23:32;8.60;64.30
63017;DHT22;50274;45.640;11.756;2023-02-01T10:26:37;8.80;64.00
63017;DHT22;50274;45.640;11.756;2023-02-01T10:29:19;9.00;63.40
63017;DHT22;50274;45.640;11.756;2023-02-01T10:31:46;9.20;62.80
63017;DHT22;50274;45.640;11.756;2023-02-01T10:34:22;9.30;62.20
63017;DHT22;50274;45.640;11.756;2023-02-01T10:36:55;9.50;61.60
63017;DHT22;50274;45.640;11.756;2023-02-01T10:39:24;9.70;61.10
63017;DHT22;50274;45.640;11.756;2023-02-01T10:41:50;9.80;60.60
63017;DHT22;50274;45.640;11.756;2023-02-01T10:44:20;10.00;60.20
63017;DHT22;50274;45.640;11.756;2023-02-01T10:46:49;10.10;60.00
63017;DHT22;50274;45.640;11.756;2023-02-01T10:49:24;10.30;59.90
63017;DHT22;50274;45.640;11.756;2023-02-01T10:51:58;10.50;59.80
63017;DHT22;50274;45.640;11.756;2023-02-01T10:54:37;10.70;59.40
63017;DHT22;50274;45.640;11.756;2023-02-01T10:57:32;10.80;59.30
63017;DHT22;50274;45.640;11.756;2023-02-01T10:59:58;11.00;58.80
63017;DHT22;50274;45.640;11.756;2023-02-01T11:02:34;11.10;58.50
63017;DHT22;50274;45.640;11.756;2023-02-01T11:05:08;11.20;58.30
63017;DHT22;50274;45.640;11.756;2023-02-01T11:07:39;11.50;58.00
63017;DHT22;50274;45.640;11.756;2023-02-01T11:10:35;11.60;57.30
63017;DHT22;50274;45.640;11.756;2023-02-01T11:13:07;11.80;57.10
63017;DHT22;50274;45.640;11.756;2023-02-01T11:15:37;11.90;56.70
63017;DHT22;50274;45.640;11.756;2023-02-01T11:18:24;11.90;56.40
63017;DHT22;50274;45.640;11.756;2023-02-01T11:20:52;11.90;56.50
63017;DHT22;50274;45.640;11.756;2023-02-01T11:23:23;12.00;56.30
63017;DHT22;50274;45.640;11.756;2023-02-01T11:25:59;12.10;55.90
63017;DHT22;50274;45.640;11.756;2023-02-01T11:28:29;12.30;55.40
63017;DHT22;50274;45.640;11.756;2023-02-01T11:30:58;12.40;55.10
63017;DHT22;50274;45.640;11.756;2023-02-01T11:33:29;12.60;54.90
63017;DHT22;50274;45.640;11.756;2023-02-01T11:35:57;12.70;54.40
63017;DHT22;50274;45.640;11.756;2023-02-01T11:38:32;12.80;54.20
63017;DHT22;50274;45.640;11.756;2023-02-01T11:41:21;12.80;53.50
63017;DHT22;50274;45.640;11.756;2023-02-01T11:43:59;12.60;53.80
63017;DHT22;50274;45.640;11.756;2023-02-01T11:46:29;12.40;53.90
63017;DHT22;50274;45.640;11.756;2023-02-01T11:48:57;12.20;54.20
63017;DHT22;50274;45.640;11.756;2023-02-01T11:51:54;12.10;54.80
63017;DHT22;50274;45.640;11.756;2023-02-01T12:05:59;13.30;52.60
63017;DHT22;50274;45.640;11.756;2023-02-01T12:11:30;13.50;51.40
63017;DHT22;50274;45.640;11.756;2023-02-01T12:14:29;13.60;51.40
63017;DHT22;50274;45.640;11.756;2023-02-01T12:39:01;14.30;50.20
63017;DHT22;50274;45.640;11.756;2023-02-01T12:42:13;14.40;49.80
63017;DHT22;50274;45.640;11.756;2023-02-01T12:47:56;14.30;49.20
63017;DHT22;50274;45.640;11.756;2023-02-01T12:50:29;14.40;49.20
63017;DHT22;50274;45.640;11.756;2023-02-01T12:53:16;14.30;48.50
63017;DHT22;50274;45.640;11.756;2023-02-01T12:55:55;14.40;48.80
63017;DHT22;50274;45.640;11.756;2023-02-01T13:01:11;14.30;49.10
63017;DHT22;50274;45.640;11.756;2023-02-01T13:03:57;14.30;48.90
63017;DHT22;50274;45.640;11.756;2023-02-01T13:06:29;14.10;49.00
63017;DHT22;50274;45.640;11.756;2023-02-01T13:11:53;14.10;49.30
63017;DHT22;50274;45.640;11.756;2023-02-01T13:17:15;14.20;48.60
63017;DHT22;50274;45.640;11.756;2023-02-01T13:22:21;14.10;48.10
63017;DHT22;50274;45.640;11.756;2023-02-01T13:24:57;14.00;48.10
63017;DHT22;50274;45.640;11.756;2023-02-01T13:27:27;14.00;48.30
63017;DHT22;50274;45.640;11.756;2023-02-01T13:38:51;14.10;48.10
63017;DHT22;50274;45.640;11.756;2023-02-01T13:41:40;14.00;47.60
63017;DHT22;50274;45.640;11.756;2023-02-01T13:44:23;14.00;47.90
63017;DHT22;50274;45.640;11.756;2023-02-01T13:46:50;14.00;48.00
63017;DHT22;50274;45.640;11.756;2023-02-01T13:49:31;14.00;48.10
63017;DHT22;50274;45.640;11.756;2023-02-01T13:51:58;13.90;47.60
63017;DHT22;50274;45.640;11.756;2023-02-01T13:56:52;13.80;47.20
63017;DHT22;50274;45.640;11.756;2023-02-01T13:59:49;13.60;47.40
63017;DHT22;50274;45.640;11.756;2023-02-01T14:05:12;13.40;47.40
63017;DHT22;50274;45.640;11.756;2023-02-01T14:10:52;13.20;48.60
63017;DHT22;50274;45.640;11.756;2023-02-01T14:13:33;13.10;48.80
63017;DHT22;50274;45.640;11.756;2023-02-01T14:23:43;12.80;49.70
63017;DHT22;50274;45.640;11.756;2023-02-01T14:50:47;11.70;52.50
63017;DHT22;50274;45.640;11.756;2023-02-01T14:53:15;11.60;52.70
63017;DHT22;50274;45.640;11.756;2023-02-01T15:02:20;11.40;53.70
63017;DHT22;50274;45.640;11.756;2023-02-01T15:04:55;11.30;53.80
63017;DHT22;50274;45.640;11.756;2023-02-01T15:07:23;11.20;54.00
63017;DHT22;50274;45.640;11.756;2023-02-01T15:09:50;11.10;54.40
63017;DHT22;50274;45.640;11.756;2023-02-01T15:12:23;11.00;54.60
63017;DHT22;50274;45.640;11.756;2023-02-01T15:15:21;10.90;54.90
63017;DHT22;50274;45.640;11.756;2023-02-01T15:20:30;10.70;55.40
63017;DHT22;50274;45.640;11.756;2023-02-01T15:23:03;10.70;55.70
63017;DHT22;50274;45.640;11.756;2023-02-01T15:25:38;10.60;55.90
63017;DHT22;50274;45.640;11.756;2023-02-01T15:28:04;10.50;56.30
63017;DHT22;50274;45.640;11.756;2023-02-01T15:30:34;10.40;56.50
63017;DHT22;50274;45.640;11.756;2023-02-01T15:33:17;10.30;56.70
63017;DHT22;50274;45.640;11.756;2023-02-01T15:35:48;10.30;57.10
63017;DHT22;50274;45.640;11.756;2023-02-01T15:41:00;10.10;57.70
63017;DHT22;50274;45.640;11.756;2023-02-01T15:43:29;10.10;57.90
63017;DHT22;50274;45.640;11.756;2023-02-01T15:46:00;10.00;58.30
63017;DHT22;50274;45.640;11.756;2023-02-01T15:48:45;9.90;58.30
63017;DHT22;50274;45.640;11.756;2023-02-01T15:51:14;9.80;58.50
63017;DHT22;50274;45.640;11.756;2023-02-01T15:53:54;9.80;58.60
63017;DHT22;50274;45.640;11.756;2023-02-01T15:56:29;9.70;59.00
63017;DHT22;50274;45.640;11.756;2023-02-01T15:59:00;9.70;59.00
63017;DHT22;50274;45.640;11.756;2023-02-01T16:01:26;9.60;59.20
63017;DHT22;50274;45.640;11.756;2023-02-01T16:06:35;9.50;59.70
63017;DHT22;50274;45.640;11.756;2023-02-01T16:09:11;9.40;59.70
63017;DHT22;50274;45.640;11.756;2023-02-01T16:11:57;9.30;59.90
63017;DHT22;50274;45.640;11.756;2023-02-01T16:14:24;9.30;60.10
63017;DHT22;50274;45.640;11.756;2023-02-01T16:16:52;9.20;60.20
63017;DHT22;50274;45.640;11.756;2023-02-01T16:19:18;9.20;60.30
63017;DHT22;50274;45.640;11.756;2023-02-01T16:21:45;9.10;60.50
63017;DHT22;50274;45.640;11.756;2023-02-01T16:24:11;9.00;60.60
63017;DHT22;50274;45.640;11.756;2023-02-01T16:26:37;8.90;60.70
63017;DHT22;50274;45.640;11.756;2023-02-01T16:29:04;8.80;60.90
63017;DHT22;50274;45.640;11.756;2023-02-01T16:31:37;8.70;61.10
63017;DHT22;50274;45.640;11.756;2023-02-01T16:34:04;8.70;61.20
63017;DHT22;50274;45.640;11.756;2023-02-01T16:36:32;8.60;61.40
63017;DHT22;50274;45.640;11.756;2023-02-01T16:38:58;8.50;61.60
63017;DHT22;50274;45.640;11.756;2023-02-01T16:41:25;8.50;61.70
63017;DHT22;50274;45.640;11.756;2023-02-01T16:43:54;8.40;61.90
63017;DHT22;50274;45.640;11.756;2023-02-01T16:46:23;8.30;62.00
63017;DHT22;50274;45.640;11.756;2023-02-01T16:48:56;8.20;62.10
63017;DHT22;50274;45.640;11.756;2023-02-01T16:51:27;8.20;62.30
63017;DHT22;50274;45.640;11.756;2023-02-01T16:53:54;8.10;62.40
63017;DHT22;50274;45.640;11.756;2023-02-01T16:56:31;8.10;62.50
63017;DHT22;50274;45.640;11.756;2023-02-01T16:58:57;8.00;62.60
63017;DHT22;50274;45.640;11.756;2023-02-01T17:01:23;8.00;62.60
63017;DHT22;50274;45.640;11.756;2023-02-01T17:03:49;8.00;62.80
63017;DHT22;50274;45.640;11.756;2023-02-01T17:06:20;7.90;62.80
63017;DHT22;50274;45.640;11.756;2023-02-01T17:08:55;7.80;62.90
63017;DHT22;50274;45.640;11.756;2023-02-01T17:11:23;7.80;63.00
63017;DHT22;50274;45.640;11.756;2023-02-01T17:13:50;7.70;63.10
63017;DHT22;50274;45.640;11.756;2023-02-01T17:16:23;7.70;63.20
63017;DHT22;50274;45.640;11.756;2023-02-01T17:21:22;7.50;63.30
63017;DHT22;50274;45.640;11.756;2023-02-01T17:23:49;7.40;63.40
63017;DHT22;50274;45.640;11.756;2023-02-01T17:26:14;7.30;63.50
63017;DHT22;50274;45.640;11.756;2023-02-01T17:28:40;7.30;63.60
63017;DHT22;50274;45.640;11.756;2023-02-01T17:31:08;7.30;63.60
63017;DHT22;50274;45.640;11.756;2023-02-01T17:33:36;7.20;63.80
63017;DHT22;50274;45.640;11.756;2023-02-01T17:36:04;7.20;63.80
63017;DHT22;50274;45.640;11.756;2023-02-01T17:38:31;7.10;63.90
63017;DHT22;50274;45.640;11.756;2023-02-01T17:40:57;7.10;63.90
63017;DHT22;50274;45.640;11.756;2023-02-01T17:43:25;7.00;64.00
63017;DHT22;50274;45.640;11.756;2023-02-01T17:45:57;6.90;64.10
63017;DHT22;50274;45.640;11.756;2023-02-01T17:48:24;6.90;64.20
63017;DHT22;50274;45.640;11.756;2023-02-01T17:50:55;6.90;64.30
63017;DHT22;50274;45.640;11.756;2023-02-01T17:53:25;6.80;64.20
63017;DHT22;50274;45.640;11.756;2023-02-01T17:55:52;6.80;64.30
63017;DHT22;50274;45.640;11.756;2023-02-01T17:58:18;6.70;64.30
63017;DHT22;50274;45.640;11.756;2023-02-01T18:00:45;6.70;64.40
63017;DHT22;50274;45.640;11.756;2023-02-01T18:03:22;6.60;64.50
63017;DHT22;50274;45.640;11.756;2023-02-01T18:05:49;6.50;64.60
63017;DHT22;50274;45.640;11.756;2023-02-01T18:08:17;6.50;64.70
63017;DHT22;50274;45.640;11.756;2023-02-01T18:10:43;6.50;64.80
63017;DHT22;50274;45.640;11.756;2023-02-01T18:13:11;6.40;64.80
63017;DHT22;50274;45.640;11.756;2023-02-01T18:15:37;6.30;65.00
63017;DHT22;50274;45.640;11.756;2023-02-01T18:18:05;6.30;65.10
63017;DHT22;50274;45.640;11.756;2023-02-01T18:20:31;6.30;65.20
63017;DHT22;50274;45.640;11.756;2023-02-01T18:22:57;6.30;65.20
63017;DHT22;50274;45.640;11.756;2023-02-01T18:25:25;6.30;65.20
63017;DHT22;50274;45.640;11.756;2023-02-01T18:27:53;6.20;65.20
63017;DHT22;50274;45.640;11.756;2023-02-01T18:30:21;6.20;65.20
63017;DHT22;50274;45.640;11.756;2023-02-01T18:32:48;6.10;65.30
63017;DHT22;50274;45.640;11.756;2023-02-01T18:37:42;6.00;65.40
63017;DHT22;50274;45.640;11.756;2023-02-01T18:40:19;6.00;65.50